sensor_id;sensor_type;location;lat;lon;timestamp;pressure;altitude;pressure_sealevel;temperature;humidity
64019;BME280;66942;52.138;5.216;2023-07-29T00:00:44;100744.0;;;25.77;49.18
64019;BME280;66942;52.138;5.216;2023-07-29T00:02:20;100747.0;;;25.79;48.93
64019;BME280;66942;52.138;5.216;2023-07-29T00:03:56;100744.0;;;25.79;49.05
64019;BME280;66942;52.138;5.216;2023-07-29T00:07:08;100743.0;;;25.66;49.29
64019;BME280;66942;52.138;5.216;2023-07-29T00:08:44;100739.0;;;25.67;49.27
64019;BME280;66942;52.138;5.216;2023-07-29T00:10:20;100731.0;;;25.65;49.41
64019;BME280;66942;52.138;5.216;2023-07-29T00:11:57;100725.0;;;25.64;49.37
64019;BME280;66942;52.138;5.216;2023-07-29T00:15:09;100723.0;;;25.6;49.55
64019;BME280;66942;52.138;5.216;2023-07-29T00:16:48;100721.0;;;25.68;49.2
64019;BME280;66942;52.138;5.216;2023-07-29T00:18:24;100722.0;;;25.7;49.21
64019;BME280;66942;52.138;5.216;2023-07-29T00:21:36;100719.0;;;25.59;49.53
64019;BME280;66942;52.138;5.216;2023-07-29T00:23:12;100717.0;;;25.61;49.46
64019;BME280;66942;52.138;5.216;2023-07-29T00:24:51;100714.0;;;25.73;49.18
64019;BME280;66942;52.138;5.216;2023-07-29T00:28:04;100706.0;;;25.91;48.81
64019;BME280;66942;52.138;5.216;2023-07-29T00:29:40;100706.0;;;25.76;49.16
64019;BME280;66942;52.138;5.216;2023-07-29T00:31:16;100701.0;;;25.64;49.46
64019;BME280;66942;52.138;5.216;2023-07-29T00:32:52;100707.0;;;25.65;49.29
64019;BME280;66942;52.138;5.216;2023-07-29T00:36:04;100712.0;;;25.81;48.99
64019;BME280;66942;52.138;5.216;2023-07-29T00:37:40;100722.0;;;25.87;48.7
64019;BME280;66942;52.138;5.216;2023-07-29T00:39:17;100725.0;;;25.66;49.37
64019;BME280;66942;52.138;5.216;2023-07-29T00:42:29;100722.0;;;25.61;49.54
64019;BME280;66942;52.138;5.216;2023-07-29T00:44:05;100720.0;;;25.64;49.56
64019;BME280;66942;52.138;5.216;2023-07-29T00:45:43;100717.0;;;25.73;49.38
64019;BME280;66942;52.138;5.216;2023-07-29T00:48:57;100712.0;;;25.65;49.67
64019;BME280;66942;52.138;5.216;2023-07-29T00:50:34;100708.0;;;25.69;49.65
64019;BME280;66942;52.138;5.216;2023-07-29T00:52:10;100700.0;;;25.8;49.32
64019;BME280;66942;52.138;5.216;2023-07-29T00:53:46;100701.0;;;25.81;49.34
64019;BME280;66942;52.138;5.216;2023-07-29T00:56:58;100696.0;;;25.86;49.17
64019;BME280;66942;52.138;5.216;2023-07-29T00:58:34;100693.0;;;25.73;49.5
64019;BME280;66942;52.138;5.216;2023-07-29T01:00:11;100692.0;;;25.78;49.52
64019;BME280;66942;52.138;5.216;2023-07-29T01:03:24;100694.0;;;25.7;49.59
64019;BME280;66942;52.138;5.216;2023-07-29T01:05:00;100695.0;;;26.02;48.73
64019;BME280;66942;52.138;5.216;2023-07-29T01:06:49;100696.0;;;25.95;48.91
64019;BME280;66942;52.138;5.216;2023-07-29T01:08:32;100700.0;;;25.95;48.96
64019;BME280;66942;52.138;5.216;2023-07-29T01:12:01;100694.0;;;25.88;49.24
64019;BME280;66942;52.138;5.216;2023-07-29T01:13:49;100695.0;;;25.78;49.7
64019;BME280;66942;52.138;5.216;2023-07-29T01:15:32;100692.0;;;25.9;49.43
64019;BME280;66942;52.138;5.216;2023-07-29T01:17:28;100691.0;;;25.8;49.63
64019;BME280;66942;52.138;5.216;2023-07-29T01:19:06;100690.0;;;25.78;49.74
64019;BME280;66942;52.138;5.216;2023-07-29T01:22:24;100691.0;;;25.85;49.57
64019;BME280;66942;52.138;5.216;2023-07-29T01:24:00;100691.0;;;25.94;49.32
64019;BME280;66942;52.138;5.216;2023-07-29T01:25:36;100691.0;;;25.83;49.6
64019;BME280;66942;52.138;5.216;2023-07-29T01:28:48;100693.0;;;26.09;48.99
64019;BME280;66942;52.138;5.216;2023-07-29T01:30:29;100693.0;;;26.05;49.42
64019;BME280;66942;52.138;5.216;2023-07-29T01:32:17;100688.0;;;25.96;49.65
64019;BME280;66942;52.138;5.216;2023-07-29T01:33:58;100684.0;;;25.93;49.8
64019;BME280;66942;52.138;5.216;2023-07-29T01:35:42;100680.0;;;26.04;49.63
64019;BME280;66942;52.138;5.216;2023-07-29T01:39:02;100681.0;;;26.16;49.34
64019;BME280;66942;52.138;5.216;2023-07-29T01:40:39;100683.0;;;26.11;49.49
64019;BME280;66942;52.138;5.216;2023-07-29T01:42:17;100687.0;;;26.13;49.5
64019;BME280;66942;52.138;5.216;2023-07-29T01:45:30;100687.0;;;26.19;49.48
64019;BME280;66942;52.138;5.216;2023-07-29T01:47:06;100685.0;;;26.31;49.13
64019;BME280;66942;52.138;5.216;2023-07-29T01:48:42;100683.0;;;26.13;49.62
64019;BME280;66942;52.138;5.216;2023-07-29T01:50:18;100680.0;;;26.14;49.62
64019;BME280;66942;52.138;5.216;2023-07-29T01:53:30;100674.0;;;26.17;49.55
64019;BME280;66942;52.138;5.216;2023-07-29T01:55:07;100677.0;;;26.12;49.69
64019;BME280;66942;52.138;5.216;2023-07-29T01:56:44;100675.0;;;26.22;49.45
64019;BME280;66942;52.138;5.216;2023-07-29T01:59:56;100677.0;;;26.27;49.29
64019;BME280;66942;52.138;5.216;2023-07-29T02:01:32;100675.0;;;26.46;48.89
64019;BME280;66942;52.138;5.216;2023-07-29T02:03:08;100673.0;;;26.44;49.09
64019;BME280;66942;52.138;5.216;2023-07-29T02:06:20;100671.0;;;26.41;49.13
64019;BME280;66942;52.138;5.216;2023-07-29T02:07:57;100664.0;;;26.35;49.33
64019;BME280;66942;52.138;5.216;2023-07-29T02:09:33;100657.0;;;26.37;49.2
64019;BME280;66942;52.138;5.216;2023-07-29T02:12:45;100661.0;;;26.37;49.26
64019;BME280;66942;52.138;5.216;2023-07-29T02:14:21;100662.0;;;26.48;48.97
64019;BME280;66942;52.138;5.216;2023-07-29T02:15:57;100663.0;;;26.49;48.98
64019;BME280;66942;52.138;5.216;2023-07-29T02:17:34;100660.0;;;26.34;49.34
64019;BME280;66942;52.138;5.216;2023-07-29T02:20:45;100659.0;;;26.45;49.07
64019;BME280;66942;52.138;5.216;2023-07-29T02:22:22;100658.0;;;26.48;49.07
64019;BME280;66942;52.138;5.216;2023-07-29T02:23:58;100659.0;;;26.47;48.96
64019;BME280;66942;52.138;5.216;2023-07-29T02:27:11;100658.0;;;26.51;48.79
64019;BME280;66942;52.138;5.216;2023-07-29T02:28:47;100656.0;;;26.46;48.83
64019;BME280;66942;52.138;5.216;2023-07-29T02:30:23;100653.0;;;26.59;48.47
64019;BME280;66942;52.138;5.216;2023-07-29T02:33:35;100657.0;;;26.48;48.74
64019;BME280;66942;52.138;5.216;2023-07-29T02:35:12;100655.0;;;26.27;48.82
64019;BME280;66942;52.138;5.216;2023-07-29T02:36:48;100653.0;;;26.68;47.94
64019;BME280;66942;52.138;5.216;2023-07-29T02:38:24;100653.0;;;26.62;47.99
64019;BME280;66942;52.138;5.216;2023-07-29T02:41:36;100650.0;;;26.63;47.75
64019;BME280;66942;52.138;5.216;2023-07-29T02:43:12;100650.0;;;26.66;47.64
64019;BME280;66942;52.138;5.216;2023-07-29T02:44:48;100648.0;;;26.61;47.72
64019;BME280;66942;52.138;5.216;2023-07-29T02:48:00;100651.0;;;26.63;47.55
64019;BME280;66942;52.138;5.216;2023-07-29T02:49:37;100652.0;;;26.46;47.93
64019;BME280;66942;52.138;5.216;2023-07-29T02:51:13;100649.0;;;26.49;47.85
64019;BME280;66942;52.138;5.216;2023-07-29T02:54:25;100650.0;;;26.52;47.56
64019;BME280;66942;52.138;5.216;2023-07-29T02:56:01;100652.0;;;26.51;47.58
64019;BME280;66942;52.138;5.216;2023-07-29T02:57:37;100649.0;;;26.4;47.76
64019;BME280;66942;52.138;5.216;2023-07-29T03:00:49;100649.0;;;26.4;47.59
64019;BME280;66942;52.138;5.216;2023-07-29T03:02:26;100648.0;;;26.37;47.52
64019;BME280;66942;52.138;5.216;2023-07-29T03:04:02;100642.0;;;26.49;47.12
64019;BME280;66942;52.138;5.216;2023-07-29T03:05:38;100640.0;;;26.35;47.34
64019;BME280;66942;52.138;5.216;2023-07-29T03:08:50;100637.0;;;26.42;47.01
64019;BME280;66942;52.138;5.216;2023-07-29T03:10:26;100626.0;;;26.28;47.29
64019;BME280;66942;52.138;5.216;2023-07-29T03:12:03;100631.0;;;26.42;46.97
64019;BME280;66942;52.138;5.216;2023-07-29T03:15:15;100627.0;;;26.31;47.25
64019;BME280;66942;52.138;5.216;2023-07-29T03:16:51;100627.0;;;26.43;46.74
64019;BME280;66942;52.138;5.216;2023-07-29T03:18:27;100625.0;;;26.49;46.43
64019;BME280;66942;52.138;5.216;2023-07-29T03:21:40;100630.0;;;26.44;46.49
64019;BME280;66942;52.138;5.216;2023-07-29T03:23:16;100630.0;;;26.38;46.31
64019;BME280;66942;52.138;5.216;2023-07-29T03:24:52;100634.0;;;26.34;46.54
64019;BME280;66942;52.138;5.216;2023-07-29T03:28:05;100635.0;;;26.27;46.65
64019;BME280;66942;52.138;5.216;2023-07-29T03:29:41;100632.0;;;26.29;46.77
64019;BME280;66942;52.138;5.216;2023-07-29T03:31:17;100630.0;;;26.21;46.58
64019;BME280;66942;52.138;5.216;2023-07-29T03:32:53;100627.0;;;26.34;46.31
64019;BME280;66942;52.138;5.216;2023-07-29T03:36:05;100632.0;;;26.28;46.45
64019;BME280;66942;52.138;5.216;2023-07-29T03:37:42;100625.0;;;26.21;46.67
64019;BME280;66942;52.138;5.216;2023-07-29T03:39:18;100622.0;;;26.14;46.89
64019;BME280;66942;52.138;5.216;2023-07-29T03:42:30;100628.0;;;26.12;46.74
64019;BME280;66942;52.138;5.216;2023-07-29T03:44:06;100631.0;;;26.18;46.48
64019;BME280;66942;52.138;5.216;2023-07-29T03:45:42;100630.0;;;26.22;46.26
64019;BME280;66942;52.138;5.216;2023-07-29T03:48:54;100630.0;;;26.29;46.13
64019;BME280;66942;52.138;5.216;2023-07-29T03:50:32;100638.0;;;26.24;46.01
64019;BME280;66942;52.138;5.216;2023-07-29T03:52:10;100643.0;;;26.29;45.94
64019;BME280;66942;52.138;5.216;2023-07-29T03:53:46;100645.0;;;26.26;46.05
64019;BME280;66942;52.138;5.216;2023-07-29T03:56:59;100642.0;;;26.2;46.16
64019;BME280;66942;52.138;5.216;2023-07-29T03:58:35;100640.0;;;26.19;46.09
64019;BME280;66942;52.138;5.216;2023-07-29T04:00:11;100642.0;;;26.24;45.96
64019;BME280;66942;52.138;5.216;2023-07-29T04:03:25;100651.0;;;26.19;46.09
64019;BME280;66942;52.138;5.216;2023-07-29T04:05:01;100650.0;;;26.28;45.77
64019;BME280;66942;52.138;5.216;2023-07-29T04:06:37;100656.0;;;26.39;45.46
64019;BME280;66942;52.138;5.216;2023-07-29T04:09:49;100649.0;;;26.3;45.7
64019;BME280;66942;52.138;5.216;2023-07-29T04:11:25;100641.0;;;26.33;45.43
64019;BME280;66942;52.138;5.216;2023-07-29T04:13:01;100644.0;;;26.45;45.25
64019;BME280;66942;52.138;5.216;2023-07-29T04:14:37;100639.0;;;26.22;45.79
64019;BME280;66942;52.138;5.216;2023-07-29T04:17:50;100636.0;;;26.12;45.8
64019;BME280;66942;52.138;5.216;2023-07-29T04:19:26;100628.0;;;26.19;45.76
64019;BME280;66942;52.138;5.216;2023-07-29T04:21:02;100635.0;;;26.33;45.55
64019;BME280;66942;52.138;5.216;2023-07-29T04:24:14;100641.0;;;26.37;45.41
64019;BME280;66942;52.138;5.216;2023-07-29T04:25:50;100639.0;;;26.28;45.53
64019;BME280;66942;52.138;5.216;2023-07-29T04:27:26;100643.0;;;26.31;45.43
64019;BME280;66942;52.138;5.216;2023-07-29T04:30:39;100641.0;;;26.31;45.4
64019;BME280;66942;52.138;5.216;2023-07-29T04:32:15;100637.0;;;26.26;45.56
64019;BME280;66942;52.138;5.216;2023-07-29T04:33:51;100637.0;;;26.33;45.38
64019;BME280;66942;52.138;5.216;2023-07-29T04:37:03;100642.0;;;26.33;45.4
64019;BME280;66942;52.138;5.216;2023-07-29T04:38:39;100644.0;;;26.35;45.26
64019;BME280;66942;52.138;5.216;2023-07-29T04:40:15;100636.0;;;26.24;45.6
64019;BME280;66942;52.138;5.216;2023-07-29T04:41:51;100637.0;;;26.33;45.46
64019;BME280;66942;52.138;5.216;2023-07-29T04:45:06;100630.0;;;26.22;45.63
64019;BME280;66942;52.138;5.216;2023-07-29T04:46:43;100632.0;;;26.22;45.58
64019;BME280;66942;52.138;5.216;2023-07-29T04:48:19;100633.0;;;26.33;45.18
64019;BME280;66942;52.138;5.216;2023-07-29T04:51:31;100631.0;;;26.26;45.69
64019;BME280;66942;52.138;5.216;2023-07-29T04:53:07;100632.0;;;26.27;45.5
64019;BME280;66942;52.138;5.216;2023-07-29T04:54:43;100636.0;;;26.26;45.4
64019;BME280;66942;52.138;5.216;2023-07-29T04:57:56;100637.0;;;26.46;45.02
64019;BME280;66942;52.138;5.216;2023-07-29T04:59:32;100639.0;;;26.01;45.64
64019;BME280;66942;52.138;5.216;2023-07-29T05:01:08;100642.0;;;26.48;44.84
64019;BME280;66942;52.138;5.216;2023-07-29T05:02:44;100646.0;;;26.45;44.94
64019;BME280;66942;52.138;5.216;2023-07-29T05:05:58;100646.0;;;26.52;45.0
64019;BME280;66942;52.138;5.216;2023-07-29T05:07:34;100647.0;;;26.54;45.08
64019;BME280;66942;52.138;5.216;2023-07-29T05:09:13;100655.0;;;26.58;44.95
64019;BME280;66942;52.138;5.216;2023-07-29T05:12:27;100659.0;;;26.5;44.99
64019;BME280;66942;52.138;5.216;2023-07-29T05:14:03;100663.0;;;26.58;44.83
64019;BME280;66942;52.138;5.216;2023-07-29T05:15:39;100658.0;;;26.61;44.82
64019;BME280;66942;52.138;5.216;2023-07-29T05:18:51;100661.0;;;26.67;44.82
64019;BME280;66942;52.138;5.216;2023-07-29T05:20:28;100658.0;;;26.55;44.94
64019;BME280;66942;52.138;5.216;2023-07-29T05:22:04;100660.0;;;26.73;44.66
64019;BME280;66942;52.138;5.216;2023-07-29T05:23:40;100657.0;;;26.65;44.81
64019;BME280;66942;52.138;5.216;2023-07-29T05:26:52;100653.0;;;26.57;45.34
64019;BME280;66942;52.138;5.216;2023-07-29T05:28:28;100662.0;;;26.62;45.24
64019;BME280;66942;52.138;5.216;2023-07-29T05:30:06;100667.0;;;26.72;44.97
64019;BME280;66942;52.138;5.216;2023-07-29T05:33:18;100660.0;;;26.75;44.85
64019;BME280;66942;52.138;5.216;2023-07-29T05:34:55;100661.0;;;26.75;45.05
64019;BME280;66942;52.138;5.216;2023-07-29T05:36:31;100658.0;;;26.7;45.29
64019;BME280;66942;52.138;5.216;2023-07-29T05:39:43;100658.0;;;26.83;44.82
64019;BME280;66942;52.138;5.216;2023-07-29T05:41:19;100672.0;;;26.8;44.93
64019;BME280;66942;52.138;5.216;2023-07-29T05:42:55;100667.0;;;26.96;44.71
64019;BME280;66942;52.138;5.216;2023-07-29T05:46:07;100662.0;;;26.97;44.75
64019;BME280;66942;52.138;5.216;2023-07-29T05:47:44;100659.0;;;26.9;44.76
64019;BME280;66942;52.138;5.216;2023-07-29T05:49:20;100660.0;;;26.89;45.0
64019;BME280;66942;52.138;5.216;2023-07-29T05:50:56;100657.0;;;27.05;44.65
64019;BME280;66942;52.138;5.216;2023-07-29T05:54:09;100655.0;;;27.03;44.66
64019;BME280;66942;52.138;5.216;2023-07-29T05:55:45;100663.0;;;27.18;44.33
64019;BME280;66942;52.138;5.216;2023-07-29T05:57:21;100660.0;;;27.15;44.7
64019;BME280;66942;52.138;5.216;2023-07-29T06:00:34;100665.0;;;27.18;44.95
64019;BME280;66942;52.138;5.216;2023-07-29T06:02:10;100664.0;;;27.19;44.72
64019;BME280;66942;52.138;5.216;2023-07-29T06:03:46;100660.0;;;27.08;44.86
64019;BME280;66942;52.138;5.216;2023-07-29T06:06:58;100660.0;;;27.26;44.4
64019;BME280;66942;52.138;5.216;2023-07-29T06:08:34;100660.0;;;27.33;44.04
64019;BME280;66942;52.138;5.216;2023-07-29T06:10:12;100653.0;;;27.49;44.21
64019;BME280;66942;52.138;5.216;2023-07-29T06:11:49;100651.0;;;27.61;44.51
64019;BME280;66942;52.138;5.216;2023-07-29T06:15:02;100655.0;;;27.44;44.41
64019;BME280;66942;52.138;5.216;2023-07-29T06:16:38;100655.0;;;27.6;44.04
64019;BME280;66942;52.138;5.216;2023-07-29T06:18:14;100653.0;;;27.76;43.89
64019;BME280;66942;52.138;5.216;2023-07-29T06:21:26;100650.0;;;27.82;43.72
64019;BME280;66942;52.138;5.216;2023-07-29T06:23:03;100658.0;;;27.83;44.14
64019;BME280;66942;52.138;5.216;2023-07-29T06:24:40;100664.0;;;27.83;43.86
64019;BME280;66942;52.138;5.216;2023-07-29T06:27:52;100663.0;;;27.9;43.61
64019;BME280;66942;52.138;5.216;2023-07-29T06:29:28;100669.0;;;28.16;43.07
64019;BME280;66942;52.138;5.216;2023-07-29T06:31:04;100671.0;;;28.2;42.98
64019;BME280;66942;52.138;5.216;2023-07-29T06:34:16;100675.0;;;28.11;43.11
64019;BME280;66942;52.138;5.216;2023-07-29T06:35:53;100671.0;;;28.07;43.32
64019;BME280;66942;52.138;5.216;2023-07-29T06:37:30;100675.0;;;28.16;43.74
64019;BME280;66942;52.138;5.216;2023-07-29T06:39:06;100678.0;;;28.18;43.97
64019;BME280;66942;52.138;5.216;2023-07-29T06:42:18;100680.0;;;28.24;43.74
64019;BME280;66942;52.138;5.216;2023-07-29T06:43:54;100676.0;;;28.23;43.63
64019;BME280;66942;52.138;5.216;2023-07-29T06:45:30;100677.0;;;28.47;43.22
64019;BME280;66942;52.138;5.216;2023-07-29T06:48:43;100678.0;;;28.41;43.18
64019;BME280;66942;52.138;5.216;2023-07-29T06:50:19;100673.0;;;28.31;43.39
64019;BME280;66942;52.138;5.216;2023-07-29T06:51:55;100674.0;;;28.52;42.95
64019;BME280;66942;52.138;5.216;2023-07-29T06:55:07;100674.0;;;28.68;42.38
64019;BME280;66942;52.138;5.216;2023-07-29T06:56:43;100669.0;;;28.68;42.62
64019;BME280;66942;52.138;5.216;2023-07-29T06:58:21;100670.0;;;28.69;42.7
64019;BME280;66942;52.138;5.216;2023-07-29T06:59:57;100673.0;;;28.74;43.06
64019;BME280;66942;52.138;5.216;2023-07-29T07:03:10;100672.0;;;28.83;42.46
64019;BME280;66942;52.138;5.216;2023-07-29T07:04:46;100676.0;;;28.78;42.35
64019;BME280;66942;52.138;5.216;2023-07-29T07:06:22;100670.0;;;28.67;42.27
64019;BME280;66942;52.138;5.216;2023-07-29T07:09:34;100678.0;;;28.9;42.26
64019;BME280;66942;52.138;5.216;2023-07-29T07:11:10;100674.0;;;28.91;41.89
64019;BME280;66942;52.138;5.216;2023-07-29T07:12:47;100680.0;;;28.92;42.02
64019;BME280;66942;52.138;5.216;2023-07-29T07:16:00;100678.0;;;28.9;41.83
64019;BME280;66942;52.138;5.216;2023-07-29T07:17:36;100680.0;;;28.76;42.36
64019;BME280;66942;52.138;5.216;2023-07-29T07:19:12;100680.0;;;28.68;42.5
64019;BME280;66942;52.138;5.216;2023-07-29T07:20:48;100683.0;;;28.59;42.72
64019;BME280;66942;52.138;5.216;2023-07-29T07:24:01;100682.0;;;28.72;42.58
64019;BME280;66942;52.138;5.216;2023-07-29T07:25:37;100683.0;;;28.75;42.69
64019;BME280;66942;52.138;5.216;2023-07-29T07:27:14;100681.0;;;28.64;43.01
64019;BME280;66942;52.138;5.216;2023-07-29T07:30:26;100683.0;;;28.43;43.13
64019;BME280;66942;52.138;5.216;2023-07-29T07:32:02;100682.0;;;28.63;43.0
64019;BME280;66942;52.138;5.216;2023-07-29T07:33:39;100683.0;;;28.57;43.32
64019;BME280;66942;52.138;5.216;2023-07-29T07:36:51;100682.0;;;28.73;42.87
64019;BME280;66942;52.138;5.216;2023-07-29T07:38:28;100683.0;;;28.81;42.86
64019;BME280;66942;52.138;5.216;2023-07-29T07:40:04;100684.0;;;28.86;42.86
64019;BME280;66942;52.138;5.216;2023-07-29T07:43:18;100685.0;;;28.65;43.04
64019;BME280;66942;52.138;5.216;2023-07-29T07:44:54;100687.0;;;28.74;42.79
64019;BME280;66942;52.138;5.216;2023-07-29T07:46:30;100685.0;;;28.86;42.9
64019;BME280;66942;52.138;5.216;2023-07-29T07:48:06;100689.0;;;28.97;42.77
64019;BME280;66942;52.138;5.216;2023-07-29T07:51:19;100683.0;;;28.88;42.64
64019;BME280;66942;52.138;5.216;2023-07-29T07:52:55;100692.0;;;29.11;42.25
64019;BME280;66942;52.138;5.216;2023-07-29T07:54:31;100685.0;;;28.83;43.32
64019;BME280;66942;52.138;5.216;2023-07-29T07:57:43;100688.0;;;29.11;42.68
64019;BME280;66942;52.138;5.216;2023-07-29T07:59:19;100691.0;;;29.25;42.0
64019;BME280;66942;52.138;5.216;2023-07-29T08:01:01;100694.0;;;29.13;42.1
64019;BME280;66942;52.138;5.216;2023-07-29T08:04:13;100693.0;;;29.3;41.91
64019;BME280;66942;52.138;5.216;2023-07-29T08:05:49;100692.0;;;29.55;41.67
64019;BME280;66942;52.138;5.216;2023-07-29T08:07:25;100695.0;;;29.37;41.73
64019;BME280;66942;52.138;5.216;2023-07-29T08:09:01;100692.0;;;29.19;41.7
64019;BME280;66942;52.138;5.216;2023-07-29T08:12:13;100693.0;;;29.4;41.37
64019;BME280;66942;52.138;5.216;2023-07-29T08:13:49;100697.0;;;29.32;42.04
64019;BME280;66942;52.138;5.216;2023-07-29T08:15:25;100695.0;;;29.61;41.62
64019;BME280;66942;52.138;5.216;2023-07-29T08:18:38;100698.0;;;29.71;40.97
64019;BME280;66942;52.138;5.216;2023-07-29T08:20:14;100701.0;;;29.85;40.83
64019;BME280;66942;52.138;5.216;2023-07-29T08:21:50;100700.0;;;29.78;41.21
64019;BME280;66942;52.138;5.216;2023-07-29T08:25:04;100690.0;;;29.82;40.79
64019;BME280;66942;52.138;5.216;2023-07-29T08:26:40;100695.0;;;29.77;41.32
64019;BME280;66942;52.138;5.216;2023-07-29T08:28:16;100697.0;;;30.0;41.63
64019;BME280;66942;52.138;5.216;2023-07-29T08:29:53;100706.0;;;30.16;40.75
64019;BME280;66942;52.138;5.216;2023-07-29T08:33:06;100700.0;;;29.95;41.12
64019;BME280;66942;52.138;5.216;2023-07-29T08:34:42;100706.0;;;30.25;40.21
64019;BME280;66942;52.138;5.216;2023-07-29T08:36:18;100706.0;;;30.38;39.97
64019;BME280;66942;52.138;5.216;2023-07-29T08:39:30;100707.0;;;30.0;40.42
64019;BME280;66942;52.138;5.216;2023-07-29T08:41:11;100708.0;;;29.87;40.21
64019;BME280;66942;52.138;5.216;2023-07-29T08:42:53;100710.0;;;30.16;40.04
64019;BME280;66942;52.138;5.216;2023-07-29T08:44:39;100709.0;;;29.79;40.42
64019;BME280;66942;52.138;5.216;2023-07-29T08:47:54;100710.0;;;29.99;40.28
64019;BME280;66942;52.138;5.216;2023-07-29T08:49:34;100711.0;;;30.15;40.21
64019;BME280;66942;52.138;5.216;2023-07-29T08:51:11;100705.0;;;30.0;40.31
64019;BME280;66942;52.138;5.216;2023-07-29T08:54:25;100705.0;;;29.71;40.96
64019;BME280;66942;52.138;5.216;2023-07-29T08:56:01;100706.0;;;29.43;40.92
64019;BME280;66942;52.138;5.216;2023-07-29T08:57:38;100707.0;;;29.71;40.78
64019;BME280;66942;52.138;5.216;2023-07-29T08:59:14;100702.0;;;29.77;40.81
64019;BME280;66942;52.138;5.216;2023-07-29T09:02:28;100705.0;;;29.78;41.17
64019;BME280;66942;52.138;5.216;2023-07-29T09:04:04;100706.0;;;29.94;41.43
64019;BME280;66942;52.138;5.216;2023-07-29T09:05:40;100705.0;;;30.12;41.49
64019;BME280;66942;52.138;5.216;2023-07-29T09:08:54;100707.0;;;30.17;42.17
64019;BME280;66942;52.138;5.216;2023-07-29T09:10:30;100705.0;;;30.19;41.45
64019;BME280;66942;52.138;5.216;2023-07-29T09:12:11;100703.0;;;30.48;40.33
64019;BME280;66942;52.138;5.216;2023-07-29T09:13:47;100705.0;;;30.44;39.96
64019;BME280;66942;52.138;5.216;2023-07-29T09:17:07;100703.0;;;29.96;40.65
64019;BME280;66942;52.138;5.216;2023-07-29T09:18:43;100709.0;;;30.6;39.75
64019;BME280;66942;52.138;5.216;2023-07-29T09:20:23;100706.0;;;30.62;39.86
64019;BME280;66942;52.138;5.216;2023-07-29T09:23:40;100711.0;;;30.63;39.39
64019;BME280;66942;52.138;5.216;2023-07-29T09:25:22;100714.0;;;30.53;39.42
64019;BME280;66942;52.138;5.216;2023-07-29T09:26:59;100709.0;;;30.45;38.75
64019;BME280;66942;52.138;5.216;2023-07-29T09:28:36;100712.0;;;30.57;39.03
64019;BME280;66942;52.138;5.216;2023-07-29T09:31:52;100713.0;;;30.64;38.79
64019;BME280;66942;52.138;5.216;2023-07-29T09:33:28;100711.0;;;30.77;38.62
64019;BME280;66942;52.138;5.216;2023-07-29T09:35:09;100713.0;;;30.76;38.96
64019;BME280;66942;52.138;5.216;2023-07-29T09:38:26;100712.0;;;30.67;39.65
64019;BME280;66942;52.138;5.216;2023-07-29T09:40:04;100717.0;;;30.21;39.42
64019;BME280;66942;52.138;5.216;2023-07-29T09:41:40;100714.0;;;30.18;39.51
64019;BME280;66942;52.138;5.216;2023-07-29T09:43:16;100715.0;;;30.2;39.53
64019;BME280;66942;52.138;5.216;2023-07-29T09:46:32;100716.0;;;30.07;39.6
64019;BME280;66942;52.138;5.216;2023-07-29T09:48:09;100719.0;;;29.95;39.89
64019;BME280;66942;52.138;5.216;2023-07-29T09:49:45;100718.0;;;30.06;39.62
64019;BME280;66942;52.138;5.216;2023-07-29T09:52:57;100716.0;;;30.02;39.68
64019;BME280;66942;52.138;5.216;2023-07-29T09:54:33;100715.0;;;29.95;40.01
64019;BME280;66942;52.138;5.216;2023-07-29T09:56:12;100715.0;;;30.04;40.87
64019;BME280;66942;52.138;5.216;2023-07-29T09:57:53;100712.0;;;29.93;40.74
64019;BME280;66942;52.138;5.216;2023-07-29T10:01:10;100714.0;;;30.19;40.56
64019;BME280;66942;52.138;5.216;2023-07-29T10:02:47;100713.0;;;30.19;40.71
64019;BME280;66942;52.138;5.216;2023-07-29T10:04:25;100714.0;;;30.24;40.03
64019;BME280;66942;52.138;5.216;2023-07-29T10:07:40;100711.0;;;30.17;39.92
64019;BME280;66942;52.138;5.216;2023-07-29T10:09:16;100713.0;;;30.37;39.64
64019;BME280;66942;52.138;5.216;2023-07-29T10:10:54;100708.0;;;30.32;39.82
64019;BME280;66942;52.138;5.216;2023-07-29T10:12:31;100715.0;;;30.3;39.97
64019;BME280;66942;52.138;5.216;2023-07-29T10:15:45;100723.0;;;30.28;39.35
64019;BME280;66942;52.138;5.216;2023-07-29T10:17:23;100720.0;;;30.31;39.92
64019;BME280;66942;52.138;5.216;2023-07-29T10:19:02;100725.0;;;30.28;39.81
64019;BME280;66942;52.138;5.216;2023-07-29T10:22:20;100736.0;;;30.34;39.87
64019;BME280;66942;52.138;5.216;2023-07-29T10:24:01;100737.0;;;30.11;41.04
64019;BME280;66942;52.138;5.216;2023-07-29T10:25:46;100740.0;;;30.13;41.27
64019;BME280;66942;52.138;5.216;2023-07-29T10:27:24;100734.0;;;29.94;40.81
64019;BME280;66942;52.138;5.216;2023-07-29T10:30:43;100741.0;;;29.86;41.27
64019;BME280;66942;52.138;5.216;2023-07-29T10:32:21;100746.0;;;29.75;41.21
64019;BME280;66942;52.138;5.216;2023-07-29T10:34:01;100744.0;;;29.81;41.08
64019;BME280;66942;52.138;5.216;2023-07-29T10:35:38;100742.0;;;29.55;41.88
64019;BME280;66942;52.138;5.216;2023-07-29T10:38:51;100733.0;;;29.47;42.45
64019;BME280;66942;52.138;5.216;2023-07-29T10:40:44;100724.0;;;29.19;43.32
64019;BME280;66942;52.138;5.216;2023-07-29T10:42:21;100725.0;;;29.28;43.29
64019;BME280;66942;52.138;5.216;2023-07-29T10:43:57;100718.0;;;29.27;43.25
64019;BME280;66942;52.138;5.216;2023-07-29T10:47:15;100712.0;;;29.1;44.2
64019;BME280;66942;52.138;5.216;2023-07-29T10:48:54;100717.0;;;29.06;44.86
64019;BME280;66942;52.138;5.216;2023-07-29T10:50:31;100720.0;;;29.0;45.35
64019;BME280;66942;52.138;5.216;2023-07-29T10:52:07;100722.0;;;29.21;45.11
64019;BME280;66942;52.138;5.216;2023-07-29T10:55:29;100724.0;;;29.15;45.73
64019;BME280;66942;52.138;5.216;2023-07-29T10:57:06;100726.0;;;29.25;45.49
64019;BME280;66942;52.138;5.216;2023-07-29T10:58:43;100740.0;;;29.48;45.14
64019;BME280;66942;52.138;5.216;2023-07-29T11:01:57;100734.0;;;29.02;45.82
64019;BME280;66942;52.138;5.216;2023-07-29T11:03:34;100735.0;;;29.32;45.18
64019;BME280;66942;52.138;5.216;2023-07-29T11:05:16;100732.0;;;29.39;44.78